Time;durP1;ratioP1;P1;durP2;ratioP2;P2;SDS_P1;SDS_P2;PMS_P1;PMS_P2;Temp;Humidity;BMP_temperature;BMP_pressure;BME280_temperature;BME280_humidity;BME280_pressure;Samples;Min_cycle;Max_cycle;Signal;HPM_P1;HPM_P2
2022/02/03 00:00:44;;;;;;;45.63;20.63;;;;;;;;;;5071924;28;20028;-50
2022/02/03 00:03:23;;;;;;;46.80;21.65;;;;;;;;;;5052977;28;20547;-53
2022/02/03 00:05:54;;;;;;;;;;;;;;;;;;5054418;28;20032;-54
2022/02/03 00:24:21;;;;;;;63.63;25.80;;;;;;;;;;5091666;28;20043;-52
2022/02/03 00:26:55;;;;;;;69.13;27.70;;;;;;;;;;5091899;28;20840;-55
2022/02/03 00:29:48;;;;;;;61.38;26.60;;;;;;;;;;5091825;28;20049;-57
2022/02/03 00:32:45;;;;;;;61.67;25.65;;;;;;;;;;5073316;28;20020;-52
2022/02/03 00:51:17;;;;;;;72.45;34.30;;;;;;;;;;5091529;28;20024;-52
2022/02/03 00:53:44;;;;;;;65.45;31.65;;;;;;;;;;5087260;28;20012;-56
2022/02/03 00:56:14;;;;;;;76.75;35.40;;;;;;;;;;5052720;28;20035;-52
2022/02/03 00:58:49;;;;;;;68.97;31.92;;;6.50;99.90;;;;;;5070686;28;20040;-52
2022/02/03 01:01:17;;;;;;;73.15;32.30;;;7.10;99.90;;;;;;5052902;28;20050;-57
2022/02/03 01:03:49;;;;;;;70.50;32.13;;;7.10;99.90;;;;;;5070506;28;20581;-51
2022/02/03 01:06:15;;;;;;;86.95;36.42;;;7.10;99.90;;;;;;5071006;28;20090;-55
2022/02/03 01:08:48;;;;;;;77.95;33.72;;;7.10;99.90;;;;;;5070388;28;20447;-54
2022/02/03 01:11:23;;;;;;;74.82;33.35;;;7.20;99.90;;;;;;5052679;28;20059;-54
2022/02/03 01:35:09;;;;;;;80.18;34.65;;;7.50;99.90;;;;;;5114117;28;20383;-56
2022/02/03 01:53:30;;;;;;;75.72;33.63;;;7.60;99.90;;;;;;5113554;28;20080;-56
2022/02/03 01:56:08;;;;;;;66.18;34.38;;;7.60;99.90;;;;;;5113596;28;20019;-52
2022/02/03 01:58:39;;;;;;;69.28;35.47;;;7.70;99.90;;;;;;5113646;28;20039;-54
2022/02/03 02:01:05;;;;;;;74.47;34.33;;;7.70;99.90;;;;;;5113538;28;20027;-53
2022/02/03 02:03:44;;;;;;;75.63;34.97;;;7.70;99.90;;;;;;5113507;28;20044;-51
2022/02/03 02:06:20;;;;;;;79.80;34.28;;;7.80;99.90;;;;;;5113100;28;20024;-52
2022/02/03 02:09:03;;;;;;;74.60;34.10;;;7.80;99.90;;;;;;5113097;28;20441;-57
2022/02/03 02:12:18;;;;;;;71.55;36.08;;;7.80;99.90;;;;;;5113414;28;20600;-54
2022/02/03 02:37:35;;;;;;;72.50;35.35;;;7.90;99.90;;;;;;5112932;28;20490;-57
2022/02/03 02:42:57;;;;;;;77.18;33.78;;;8.00;99.90;;;;;;5113024;28;20047;-56
2022/02/03 02:46:01;;;;;;;72.50;35.83;;;8.00;99.90;;;;;;5112385;28;20471;-58
2022/02/03 02:49:18;;;;;;;73.65;36.63;;;8.10;99.90;;;;;;5093784;28;20487;-55
2022/02/03 02:51:51;;;;;;;69.57;36.28;;;8.10;99.90;;;;;;5056408;28;20109;-53
2022/02/03 02:57:35;;;;;;;78.30;40.13;;;8.10;99.90;;;;;;5112505;28;20387;-52
2022/02/03 03:00:58;;;;;;;75.60;37.67;;;8.10;99.90;;;;;;5112099;28;20019;-56
2022/02/03 03:33:29;;;;;;;85.88;47.88;;;8.20;99.90;;;;;;5112141;28;20020;-52
2022/02/03 03:36:17;;;;;;;86.10;46.38;;;8.20;99.90;;;;;;5093877;28;20024;-55
2022/02/03 03:38:47;;;;;;;73.07;40.97;;;8.20;99.90;;;;;;5112270;28;20034;-53
2022/02/03 03:41:17;;;;;;;89.05;49.95;;;8.30;99.90;;;;;;5111971;28;20072;-56
2022/02/03 03:43:45;;;;;;;88.15;49.40;;;8.30;99.90;;;;;;5112067;28;20028;-52
2022/02/03 03:46:27;;;;;;;78.68;44.80;;;8.30;99.90;;;;;;5111832;28;20040;-54
2022/02/03 03:49:32;;;;;;;93.40;46.72;;;8.30;99.90;;;;;;5112044;28;20035;-52
2022/02/03 03:52:07;;;;;;;88.43;44.58;;;8.40;99.90;;;;;;5112132;28;20019;-52
2022/02/03 03:54:42;;;;;;;85.63;45.42;;;8.30;99.90;;;;;;5093556;28;20058;-51
2022/02/03 04:00:29;;;;;;;96.20;47.17;;;8.40;99.90;;;;;;5112234;28;20038;-54
2022/02/03 04:43:19;;;;;;;;;;;8.40;99.90;;;;;;5115764;28;20403;-56
2022/02/03 04:46:18;;;;;;;73.93;42.33;;;8.40;99.90;;;;;;5113892;28;19903;-56
2022/02/03 05:03:24;;;;;;;68.63;42.40;;;8.40;99.90;;;;;;5114536;28;20083;-52
2022/02/03 05:06:22;;;;;;;65.00;40.08;;;8.40;99.90;;;;;;5114233;28;20104;-54
2022/02/03 05:15:19;;;;;;;70.75;41.20;;;8.40;99.90;;;;;;5113766;28;20063;-51
2022/02/03 05:18:31;;;;;;;64.43;37.20;;;8.40;99.90;;;;;;5113916;28;20082;-57
2022/02/03 05:22:31;;;;;;;59.15;36.00;;;8.40;99.90;;;;;;5113868;28;20034;-55
2022/02/03 06:12:04;;;;;;;53.85;32.53;;;8.30;99.90;;;;;;5112898;28;20058;-53
2022/02/03 06:15:16;;;;;;;51.63;31.17;;;8.20;99.90;;;;;;5112813;28;20053;-53
2022/02/03 06:23:45;;;;;;;54.30;30.58;;;8.10;99.90;;;;;;5112843;28;20166;-53
2022/02/03 06:29:16;;;;;;;48.17;27.67;;;8.00;99.90;;;;;;5112587;28;20030;-55
2022/02/03 06:31:43;;;;;;;53.72;29.02;;;8.00;99.90;;;;;;5112714;28;20024;-51
2022/02/03 06:34:09;;;;;;;54.08;31.17;;;8.00;99.90;;;;;;5111479;28;20411;-51
2022/02/03 06:36:37;;;;;;;49.63;29.98;;;8.00;99.90;;;;;;5112218;28;20012;-54
2022/02/03 06:39:11;;;;;;;47.22;26.83;;;7.90;99.90;;;;;;5112166;28;20028;-53
2022/02/03 06:41:36;;;;;;;43.13;26.33;;;7.90;99.90;;;;;;5112656;28;20391;-55
2022/02/03 06:44:02;;;;;;;46.45;28.17;;;7.90;99.90;;;;;;5112124;28;20030;-54
2022/02/03 06:46:30;;;;;;;43.97;28.80;;;7.90;99.90;;;;;;5112366;28;20080;-51
2022/02/03 06:49:07;;;;;;;44.50;28.48;;;7.90;99.90;;;;;;5112383;28;20051;-57
2022/02/03 06:51:36;;;;;;;47.17;29.87;;;7.80;99.90;;;;;;5112238;28;20031;-53
2022/02/03 06:54:08;;;;;;;45.03;29.13;;;7.80;99.90;;;;;;5112843;28;20028;-53
2022/02/03 06:56:45;;;;;;;50.10;30.05;;;7.80;99.90;;;;;;5112204;28;20018;-52
2022/02/03 06:59:14;;;;;;;47.93;29.40;;;7.80;99.90;;;;;;5111148;28;20324;-52
2022/02/03 07:01:43;;;;;;;44.17;29.63;;;7.70;99.90;;;;;;5111770;28;20035;-53
2022/02/03 07:04:22;;;;;;;;;;;7.80;99.90;;;;;;5112057;28;20054;-54
2022/02/03 07:06:48;;;;;;;45.35;29.17;;;7.80;99.90;;;;;;5111867;28;19928;-55
2022/02/03 07:09:14;;;;;;;45.70;30.45;;;7.90;99.90;;;;;;5093449;28;20063;-52
2022/02/03 07:11:40;;;;;;;42.17;30.33;;;7.90;99.90;;;;;;5111679;28;20027;-52
2022/02/03 07:14:09;;;;;;;39.13;27.55;;;7.90;99.90;;;;;;5111657;28;20099;-55
2022/02/03 07:16:42;;;;;;;39.63;27.10;;;7.80;99.90;;;;;;5113083;28;20111;-56
2022/02/03 07:19:08;;;;;;;49.30;27.75;;;7.70;99.90;;;;;;5112229;28;20036;-54
2022/02/03 07:21:34;;;;;;;34.67;26.15;;;7.70;99.90;;;;;;5111746;28;20028;-51
2022/02/03 07:23:59;;;;;;;38.75;25.63;;;7.70;99.90;;;;;;5111906;28;20031;-52
2022/02/03 07:26:25;;;;;;;36.40;22.45;;;7.60;99.90;;;;;;5112080;28;20099;-55
2022/02/03 07:28:50;;;;;;;31.80;21.95;;;7.70;99.90;;;;;;5111688;28;20402;-51
2022/02/03 07:31:16;;;;;;;30.55;19.08;;;7.60;99.90;;;;;;5111990;28;20099;-57
2022/02/03 07:33:41;;;;;;;26.42;17.27;;;7.60;99.90;;;;;;5111796;28;20031;-54
2022/02/03 07:36:09;;;;;;;24.92;16.65;;;7.60;99.90;;;;;;5111539;28;20024;-56
2022/02/03 07:38:37;;;;;;;24.00;16.58;;;7.70;99.90;;;;;;5111980;28;20407;-53
2022/02/03 07:41:03;;;;;;;24.15;14.82;;;7.70;99.90;;;;;;5112321;28;20020;-55
2022/02/03 07:43:28;;;;;;;27.85;13.82;;;7.70;99.90;;;;;;5093676;28;20047;-54
2022/02/03 07:45:54;;;;;;;23.95;14.40;;;7.60;99.90;;;;;;5112000;28;20026;-53
2022/02/03 07:48:23;;;;;;;23.42;13.75;;;7.70;99.90;;;;;;5115902;28;20028;-54
2022/02/03 07:50:48;;;;;;;21.77;12.25;;;7.60;99.90;;;;;;5115538;28;20020;-56
2022/02/03 07:53:14;;;;;;;25.48;13.57;;;7.60;99.90;;;;;;5115568;28;20020;-54
2022/02/03 07:55:40;;;;;;;22.73;13.27;;;7.60;99.90;;;;;;5115395;28;20076;-52
2022/02/03 07:58:06;;;;;;;26.80;13.43;;;7.50;99.90;;;;;;5115427;28;20032;-50
2022/02/03 08:00:31;;;;;;;24.15;13.50;;;7.50;99.90;;;;;;5115840;28;20029;-54
2022/02/03 08:02:57;;;;;;;24.42;13.25;;;7.40;99.90;;;;;;5115529;28;20414;-54
2022/02/03 08:05:24;;;;;;;22.52;14.15;;;7.50;99.90;;;;;;5097347;28;20023;-55
2022/02/03 08:07:53;;;;;;;25.13;14.68;;;7.40;99.90;;;;;;5097266;28;20249;-51
2022/02/03 08:10:43;;;;;;;24.58;13.23;;;7.40;99.90;;;;;;5115348;28;20479;-56
2022/02/03 08:13:12;;;;;;;23.67;12.75;;;7.40;99.90;;;;;;5115087;28;20055;-52
2022/02/03 08:15:40;;;;;;;22.38;13.55;;;7.50;99.90;;;;;;5114623;28;20375;-52
2022/02/03 08:18:11;;;;;;;25.60;12.93;;;7.40;99.90;;;;;;5115375;28;20471;-53
2022/02/03 08:20:45;;;;;;;22.23;13.38;;;7.40;99.90;;;;;;5097156;28;20036;-51
2022/02/03 08:23:38;;;;;;;24.13;13.75;;;7.40;99.90;;;;;;5114941;28;20150;-57
2022/02/03 08:26:08;;;;;;;23.50;12.23;;;7.50;99.90;;;;;;5114447;28;20445;-55
2022/02/03 08:31:11;;;;;;;23.10;12.48;;;7.50;99.90;;;;;;5114860;28;20612;-56
2022/02/03 08:33:36;;;;;;;20.48;10.55;;;7.50;99.90;;;;;;5114957;28;20395;-51
2022/02/03 08:36:05;;;;;;;20.52;11.25;;;7.50;99.90;;;;;;5096028;28;20015;-56
2022/02/03 08:41:02;;;;;;;22.83;11.00;;;7.60;99.90;;;;;;5114419;28;20028;-55
2022/02/03 08:43:30;;;;;;;23.20;11.63;;;7.70;99.90;;;;;;5114589;28;20548;-55
2022/02/03 08:45:57;;;;;;;23.45;12.73;;;7.70;99.90;;;;;;5114185;28;20038;-55
2022/02/03 08:48:23;;;;;;;23.92;12.27;;;7.70;99.90;;;;;;5114264;28;20036;-55
2022/02/03 08:50:49;;;;;;;22.48;12.00;;;7.80;99.90;;;;;;5114387;28;20023;-54
2022/02/03 08:53:25;;;;;;;22.75;11.55;;;7.80;99.90;;;;;;5114301;28;20028;-54
2022/02/03 08:56:08;;;;;;;23.65;11.38;;;7.70;99.90;;;;;;5114157;28;20020;-55
2022/02/03 09:42:02;;;;;;;25.60;13.93;;;7.30;99.90;;;;;;5114183;28;20058;-66
2022/02/03 09:52:53;;;;;;;27.25;15.02;;;7.40;99.90;;;;;;5113891;28;20065;-67
2022/02/03 09:58:16;;;;;;;28.98;15.45;;;7.50;99.90;;;;;;5113625;28;20020;-67
2022/02/03 10:03:40;;;;;;;28.80;14.48;;;7.50;99.90;;;;;;5113220;28;20055;-63
2022/02/03 10:06:14;;;;;;;30.33;16.35;;;7.50;99.90;;;;;;5113076;28;20024;-62
2022/02/03 10:08:54;;;;;;;29.08;14.85;;;7.50;99.90;;;;;;5112931;28;20028;-64
2022/02/03 10:11:27;;;;;;;26.33;15.23;;;7.50;99.90;;;;;;5112930;28;20023;-63
2022/02/03 10:13:54;;;;;;;27.25;14.70;;;7.60;99.90;;;;;;5113006;28;20434;-63
2022/02/03 10:16:28;;;;;;;29.42;15.27;;;7.60;99.90;;;;;;5113000;28;20459;-63
2022/02/03 10:19:17;;;;;;;30.05;16.60;;;7.60;99.90;;;;;;5112917;28;20055;-62
2022/02/03 10:21:47;;;;;;;30.13;16.85;;;7.60;99.90;;;;;;5113258;28;20049;-63
2022/02/03 10:24:16;;;;;;;29.50;18.30;;;7.60;99.90;;;;;;5094628;28;20027;-63
2022/02/03 10:26:52;;;;;;;28.25;16.40;;;7.60;99.90;;;;;;5112930;28;20047;-63
2022/02/03 10:29:34;;;;;;;29.10;16.88;;;7.60;99.90;;;;;;5113496;28;20024;-63
2022/02/03 10:32:00;;;;;;;29.75;16.50;;;7.60;99.90;;;;;;5112681;28;20339;-60
2022/02/03 10:34:32;;;;;;;26.70;14.73;;;7.60;99.90;;;;;;5112483;28;20495;-58
2022/02/03 11:10:42;;;;;;;26.35;14.82;;;8.30;99.90;;;;;;5112962;28;20153;-67
2022/02/03 11:13:10;;;;;;;21.92;12.52;;;8.40;99.90;;;;;;5094608;28;20016;-66
2022/02/03 11:15:36;;;;;;;23.13;12.87;;;8.30;99.90;;;;;;5112328;28;20035;-65
2022/02/03 11:18:07;;;;;;;24.70;13.73;;;8.30;99.90;;;;;;5094495;28;20020;-66
2022/02/03 11:20:38;;;;;;;24.55;12.23;;;8.20;99.90;;;;;;5095247;28;20019;-66
2022/02/03 11:28:52;;;;;;;23.55;13.18;;;8.00;99.90;;;;;;5116474;28;20027;-65
2022/02/03 11:32:13;;;;;;;26.27;13.02;;;8.00;99.90;;;;;;5116804;28;20522;-66
2022/02/03 11:40:45;;;;;;;22.80;12.40;;;7.90;99.90;;;;;;5116389;28;20495;-67
2022/02/03 12:02:22;;;;;;;25.75;14.73;;;7.80;99.90;;;;;;5115948;28;20027;-66
2022/02/03 12:05:11;;;;;;;26.58;14.40;;;7.80;99.90;;;;;;5111899;28;20035;-67
2022/02/03 12:10:24;;;;;;;27.00;13.85;;;7.80;99.90;;;;;;5082853;28;20522;-66
2022/02/03 12:21:50;;;;;;;22.73;11.70;;;8.20;99.90;;;;;;4757310;28;10000181;-67
2022/02/03 12:29:30;;;;;;;24.00;11.60;;;8.60;99.90;;;;;;5097684;28;20559;-65
2022/02/03 12:40:06;;;;;;;24.02;11.98;;;8.60;99.90;;;;;;5096982;28;20081;-67
2022/02/03 12:42:53;;;;;;;;;;;8.60;99.90;;;;;;5078002;28;20488;-66
2022/02/03 12:45:26;;;;;;;22.85;10.50;;;8.70;99.90;;;;;;5093555;28;20402;-66
2022/02/03 12:47:58;;;;;;;20.55;10.60;;;8.70;99.90;;;;;;5094239;28;20113;-66
2022/02/03 12:50:32;;;;;;;20.60;10.13;;;8.80;99.90;;;;;;5092630;28;20020;-66
2022/02/03 12:52:59;;;;;;;21.08;10.05;;;8.80;99.90;;;;;;5094381;28;20027;-65
2022/02/03 12:55:29;;;;;;;22.08;11.73;;;8.60;99.90;;;;;;4749207;28;9999670;-66
2022/02/03 12:57:57;;;;;;;23.20;10.23;;;8.70;99.90;;;;;;5091486;28;20030;-66
2022/02/03 13:00:33;;;;;;;19.70;10.35;;;8.80;99.90;;;;;;5104106;28;20073;-68
2022/02/03 13:03:02;;;;;;;20.58;10.25;;;9.00;99.90;;;;;;5111496;28;20035;-65
2022/02/03 13:05:33;;;;;;;21.27;10.20;;;9.10;99.90;;;;;;5094524;28;20532;-65
2022/02/03 13:08:00;;;;;;;20.55;10.45;;;9.10;99.90;;;;;;5096638;28;20023;-65
2022/02/03 13:10:31;;;;;;;19.55;10.30;;;9.20;99.90;;;;;;5113761;28;20047;-65
2022/02/03 13:13:20;;;;;;;19.38;9.93;;;9.30;99.90;;;;;;5095518;28;20028;-66
2022/02/03 13:15:46;;;;;;;18.70;9.63;;;9.40;99.90;;;;;;5120870;22;20044;-69
2022/02/03 13:18:22;;;;;;;19.85;9.35;;;9.40;99.90;;;;;;5092863;28;20047;-66
2022/02/03 13:20:58;;;;;;;19.25;8.80;;;9.30;99.90;;;;;;5089749;28;20062;-67
2022/02/03 13:23:27;;;;;;;22.10;9.95;;;9.20;99.90;;;;;;5093062;28;20405;-66
2022/02/03 13:26:09;;;;;;;19.60;9.65;;;9.10;99.90;;;;;;5092404;28;20062;-69
2022/02/03 13:28:42;;;;;;;18.50;9.02;;;9.00;99.90;;;;;;5093139;28;20032;-66
2022/02/03 13:33:50;;;;;;;19.52;9.43;;;8.80;99.90;;;;;;5092206;28;20016;-66
2022/02/03 13:36:23;;;;;;;19.77;9.98;;;8.60;99.90;;;;;;5091767;28;20024;-66
2022/02/03 13:39:13;;;;;;;23.30;9.65;;;8.70;99.90;;;;;;5091824;28;20020;-66
2022/02/03 13:41:42;;;;;;;22.48;10.45;;;8.60;99.90;;;;;;5091694;28;20483;-67
2022/02/03 13:44:10;;;;;;;20.95;10.48;;;8.60;99.90;;;;;;5090088;28;20575;-67
2022/02/03 13:46:39;;;;;;;21.10;10.77;;;8.50;99.90;;;;;;5091552;28;20399;-66
2022/02/03 13:49:13;;;;;;;19.92;10.15;;;8.50;99.90;;;;;;5090145;28;20024;-67
2022/02/03 13:51:41;;;;;;;19.92;10.70;;;8.40;99.90;;;;;;5091761;28;20024;-66
2022/02/03 14:29:25;;;;;;;23.70;11.23;;;8.10;99.90;;;;;;5054869;28;20043;-64
2022/02/03 14:31:59;;;;;;;21.35;11.23;;;8.00;99.90;;;;;;5111169;28;20352;-65
2022/02/03 14:34:31;;;;;;;22.48;12.05;;;8.00;99.90;;;;;;5110820;28;20027;-65
2022/02/03 14:42:15;;;;;;;22.27;11.48;;;8.00;99.90;;;;;;5088669;28;20350;-66
2022/02/03 14:44:41;;;;;;;20.75;11.57;;;8.00;99.90;;;;;;5092294;28;20027;-66
2022/02/03 14:47:08;;;;;;;19.88;11.15;;;8.00;99.90;;;;;;5110478;28;20016;-64
2022/02/03 14:49:36;;;;;;;21.88;10.77;;;7.90;99.90;;;;;;5110872;28;20047;-65
2022/02/03 15:00:14;;;;;;;20.05;11.52;;;8.00;99.90;;;;;;5110289;28;20065;-66
2022/02/03 15:02:40;;;;;;;20.80;11.23;;;8.00;99.90;;;;;;5111089;28;20054;-66
2022/02/03 15:05:10;;;;;;;20.65;11.57;;;7.90;99.90;;;;;;5110543;28;20035;-66
2022/02/03 15:07:42;;;;;;;22.15;11.30;;;7.90;99.90;;;;;;5111373;28;20020;-66
2022/02/03 15:15:02;;;;;;;24.98;12.63;;;7.80;99.90;;;;;;5110846;28;20052;-65
2022/02/03 15:17:29;;;;;;;28.13;13.48;;;7.80;99.90;;;;;;5111181;28;20509;-65
2022/02/03 15:19:56;;;;;;;22.60;13.35;;;7.70;99.90;;;;;;5092453;28;20054;-65
2022/02/03 15:22:21;;;;;;;26.33;13.30;;;7.70;99.90;;;;;;5110456;28;20053;-63
2022/02/03 15:24:47;;;;;;;24.20;12.50;;;7.70;99.90;;;;;;5110694;28;20028;-66
2022/02/03 15:27:15;;;;;;;22.98;11.90;;;7.70;99.90;;;;;;5110394;28;20074;-66
2022/02/03 15:29:46;;;;;;;22.45;11.93;;;7.60;99.90;;;;;;5110998;28;20108;-65
2022/02/03 15:32:11;;;;;;;24.88;12.82;;;7.70;99.90;;;;;;5110964;28;20027;-65
2022/02/03 15:34:37;;;;;;;22.83;12.90;;;7.60;99.90;;;;;;5110317;28;20023;-65
2022/02/03 15:37:15;;;;;;;24.73;13.43;;;7.60;99.90;;;;;;5110239;28;20072;-65
2022/02/03 15:39:51;;;;;;;24.38;12.63;;;7.60;99.90;;;;;;5108705;28;20022;-65
2022/02/03 15:42:25;;;;;;;24.75;13.75;;;7.60;99.90;;;;;;5107803;28;20060;-65
2022/02/03 15:44:53;;;;;;;22.05;12.48;;;7.60;99.90;;;;;;5109999;28;20024;-65
2022/02/03 15:47:35;;;;;;;26.52;13.00;;;7.50;99.90;;;;;;5108308;28;20043;-65
2022/02/03 16:16:53;;;;;;;25.23;13.13;;;7.50;99.90;;;;;;5100323;28;20669;-66
2022/02/03 16:19:21;;;;;;;24.60;14.60;;;7.50;99.90;;;;;;5100675;28;20035;-67
2022/02/03 16:22:20;;;;;;;26.40;13.52;;;7.50;99.90;;;;;;5091071;28;20024;-66
2022/02/03 16:24:44;;;;;;;24.90;13.23;;;7.50;99.90;;;;;;5109283;28;20035;-66
2022/02/03 16:41:07;;;;;;;24.00;13.50;;;7.50;99.90;;;;;;5091520;28;20050;-66
2022/02/03 16:50:20;;;;;;;23.75;14.07;;;7.50;99.90;;;;;;5090748;28;20030;-66
2022/02/03 16:52:12;;;;;;;25.90;14.77;;;;;;;;;;5107861;28;20035;-65
2022/02/03 16:54:34;;;;;;;25.08;14.70;;;;;;;;;;5108513;28;20119;-65
2022/02/03 16:57:04;;;;;;;25.13;14.27;;;7.40;99.90;;;;;;5092255;28;20383;-65
2022/02/03 16:59:33;;;;;;;27.55;14.73;;;7.20;99.90;;;;;;5092723;28;20062;-67
2022/02/03 17:01:59;;;;;;;28.52;16.02;;;7.10;99.90;;;;;;5110602;28;20123;-67
2022/02/03 17:04:24;;;;;;;26.67;16.13;;;7.00;99.90;;;;;;5110463;28;20102;-67
2022/02/03 17:06:50;;;;;;;31.33;16.45;;;7.10;99.90;;;;;;5092351;28;20527;-67
2022/02/03 17:09:15;;;;;;;28.92;18.52;;;7.00;99.90;;;;;;5092195;28;20533;-66
2022/02/03 17:11:41;;;;;;;31.10;19.00;;;6.90;99.90;;;;;;5093081;28;20101;-66
2022/02/03 17:14:07;;;;;;;30.25;19.83;;;;;;;;;;5110814;28;20322;-68
2022/02/03 17:16:33;;;;;;;33.55;20.33;;;;;;;;;;5110882;28;20028;-69
2022/02/03 17:18:59;;;;;;;31.70;20.05;;;;;;;;;;5089320;28;20043;-67
2022/02/03 17:21:29;;;;;;;35.50;21.63;;;;;;;;;;5110685;28;20055;-65
2022/02/03 17:23:55;;;;;;;34.60;20.38;;;;;;;;;;5094933;28;20395;-66
2022/02/03 17:26:30;;;;;;;34.22;22.95;;;;;;;;;;5090431;28;20498;-67
2022/02/03 17:29:15;;;;;;;34.50;21.80;;;;;;;;;;5089627;28;20151;-67
2022/02/03 18:06:13;;;;;;;38.05;23.13;;;;;;;;;;5082347;28;20723;-65
2022/02/03 18:10:25;;;;;;;36.80;24.95;;;;;;;;;;5108903;28;20031;-64
2022/02/03 18:30:16;;;;;;;44.78;26.85;;;;;;;;;;5088378;28;20147;-65
2022/02/03 18:35:16;;;;;;;40.05;26.98;;;;;;;;;;5093214;28;20107;-66
2022/02/03 18:54:02;;;;;;;37.90;25.52;;;;;;;;;;5087078;28;20035;-59
2022/02/03 18:57:20;;;;;;;36.85;26.38;;;;;;;;;;5087208;28;20497;-56
2022/02/03 20:08:53;;;;;;;36.40;25.60;;;6.60;99.90;;;;;;5104067;28;20027;-64
2022/02/03 20:11:20;;;;;;;36.22;23.15;;;6.60;99.90;;;;;;5113818;28;20146;-65
2022/02/03 20:13:47;;;;;;;38.00;24.05;;;6.60;99.90;;;;;;5113547;28;20023;-64
2022/02/03 20:16:19;;;;;;;35.97;23.23;;;6.60;99.90;;;;;;5113098;28;20559;-64
2022/02/03 20:18:45;;;;;;;37.42;22.83;;;6.60;99.90;;;;;;5113002;28;20035;-64
2022/02/03 20:21:11;;;;;;;38.88;25.80;;;6.60;99.90;;;;;;5123557;27;20026;-65
2022/02/03 20:23:42;;;;;;;35.78;23.27;;;6.60;99.90;;;;;;5120787;27;20023;-65
2022/02/03 20:26:08;;;;;;;35.33;21.83;;;6.60;99.90;;;;;;5113139;28;20080;-65
2022/02/03 20:28:34;;;;;;;35.85;21.88;;;6.50;99.90;;;;;;5113032;28;20392;-65
2022/02/03 20:31:00;;;;;;;39.05;23.30;;;6.50;99.90;;;;;;5113171;28;20019;-65
2022/02/03 20:33:26;;;;;;;37.63;22.45;;;6.50;99.90;;;;;;5113098;28;20027;-65
2022/02/03 20:35:52;;;;;;;34.13;22.48;;;6.50;99.90;;;;;;5112768;28;20125;-65
2022/02/03 20:38:17;;;;;;;33.72;21.63;;;6.60;99.90;;;;;;5113123;28;20062;-64
2022/02/03 20:40:44;;;;;;;36.20;20.77;;;6.60;99.90;;;;;;5112995;28;20023;-65
2022/02/03 20:43:10;;;;;;;34.10;21.95;;;6.60;99.90;;;;;;5094558;28;20059;-65
2022/02/03 20:45:38;;;;;;;35.55;22.92;;;6.50;99.90;;;;;;5112807;28;20051;-65
2022/02/03 20:48:04;;;;;;;35.75;22.05;;;6.50;99.90;;;;;;5113061;28;20023;-65
2022/02/03 20:50:30;;;;;;;32.47;19.27;;;6.50;99.90;;;;;;5112476;28;20031;-65
2022/02/03 20:52:56;;;;;;;36.25;21.33;;;6.60;99.90;;;;;;5112255;28;20049;-65
2022/02/03 20:55:21;;;;;;;36.38;19.77;;;6.60;99.90;;;;;;5112185;28;20536;-65
2022/02/03 20:57:47;;;;;;;36.90;22.27;;;6.60;99.90;;;;;;5112501;28;20016;-65
2022/02/03 21:00:23;;;;;;;33.60;21.23;;;6.60;99.90;;;;;;5108177;28;20027;-65
2022/02/03 21:02:56;;;;;;;35.33;21.60;;;6.60;99.90;;;;;;5099011;28;20027;-65
2022/02/03 21:05:22;;;;;;;34.47;19.63;;;6.60;99.90;;;;;;4752830;28;10000523;-65
2022/02/03 21:07:49;;;;;;;34.75;20.67;;;6.60;99.90;;;;;;5076123;28;20631;-65
2022/02/03 21:10:24;;;;;;;32.90;20.38;;;6.60;99.90;;;;;;5108711;28;20032;-64
2022/02/03 21:12:49;;;;;;;33.17;20.35;;;6.60;99.90;;;;;;5097835;28;20031;-64
2022/02/03 21:15:23;;;;;;;37.33;22.10;;;6.60;99.90;;;;;;5102039;28;20028;-64
2022/02/03 21:17:48;;;;;;;34.53;21.23;;;6.60;99.90;;;;;;5093727;28;20031;-64
2022/02/03 21:20:17;;;;;;;32.67;19.50;;;6.60;99.90;;;;;;5106350;28;20089;-64
2022/02/03 21:22:43;;;;;;;36.63;19.75;;;6.60;99.90;;;;;;5070392;28;20024;-65
2022/02/03 21:26:17;;;;;;;38.60;20.63;;;6.60;99.90;;;;;;5087727;28;20055;-64
2022/02/03 21:28:11;;;;;;;32.58;19.98;;;6.60;99.90;;;;;;5080007;28;20149;-64
2022/02/03 21:30:37;;;;;;;33.17;19.35;;;6.60;99.90;;;;;;5095872;28;20139;-65
2022/02/03 21:33:04;;;;;;;30.40;17.60;;;6.70;99.90;;;;;;5093802;28;20032;-57
2022/02/03 21:35:30;;;;;;;37.13;20.65;;;6.70;99.90;;;;;;5096026;28;20028;-64
2022/02/03 21:37:55;;;;;;;33.75;19.25;;;6.70;99.90;;;;;;5093226;28;20065;-63
2022/02/03 21:40:22;;;;;;;31.05;20.13;;;6.70;99.90;;;;;;5097761;28;20031;-66
2022/02/03 21:42:49;;;;;;;30.38;17.85;;;6.70;99.90;;;;;;5093611;28;20035;-65
2022/02/03 21:45:18;;;;;;;33.03;19.98;;;6.70;99.90;;;;;;5094566;28;20106;-65
2022/02/03 21:47:44;;;;;;;31.80;18.42;;;6.70;99.90;;;;;;5094834;28;20055;-63
2022/02/03 21:50:10;;;;;;;35.13;19.73;;;6.70;99.90;;;;;;5095695;28;20089;-64
2022/02/03 21:52:40;;;;;;;35.10;19.67;;;6.70;99.90;;;;;;5096793;28;20027;-60
2022/02/03 21:55:07;;;;;;;33.72;20.13;;;6.70;99.90;;;;;;5098733;28;20404;-65
2022/02/03 21:57:34;;;;;;;32.58;20.38;;;6.70;99.90;;;;;;5095893;28;20059;-64
2022/02/03 22:00:00;;;;;;;32.28;18.00;;;6.60;99.90;;;;;;5095708;28;20032;-65
2022/02/03 22:02:26;;;;;;;34.83;19.08;;;6.70;99.90;;;;;;5095848;28;20088;-62
2022/02/03 22:04:53;;;;;;;34.70;20.33;;;6.70;99.90;;;;;;5095051;28;20482;-63
2022/02/03 22:07:19;;;;;;;33.53;19.88;;;6.70;99.90;;;;;;5093999;28;20034;-63
2022/02/03 22:09:45;;;;;;;32.60;20.52;;;6.70;99.90;;;;;;5097576;28;20103;-64
2022/02/03 22:12:10;;;;;;;31.80;19.80;;;6.70;99.90;;;;;;5096028;28;20395;-64
2022/02/03 22:14:36;;;;;;;34.60;21.17;;;6.70;99.90;;;;;;5088409;28;20028;-64
2022/02/03 22:17:02;;;;;;;32.28;20.98;;;6.70;99.90;;;;;;5094646;28;20077;-64
2022/02/03 22:19:29;;;;;;;33.13;18.80;;;6.70;99.90;;;;;;5108488;28;20031;-64
2022/02/03 22:27:28;;;;;;;32.50;19.88;;;6.70;99.90;;;;;;5108184;28;20028;-64
2022/02/03 22:48:59;;;;;;;34.15;20.73;;;6.70;99.90;;;;;;5107751;28;20028;-64
2022/02/03 22:51:25;;;;;;;39.58;20.65;;;6.70;99.90;;;;;;5104953;28;20416;-63
2022/02/03 22:53:50;;;;;;;34.40;19.92;;;6.70;99.90;;;;;;5094952;28;20027;-63
2022/02/03 22:56:17;;;;;;;36.08;22.45;;;6.70;99.90;;;;;;5096680;28;20510;-66
2022/02/03 23:01:22;;;;;;;35.65;21.75;;;6.70;99.90;;;;;;5103125;28;20027;-64
2022/02/03 23:03:48;;;;;;;37.20;22.27;;;6.70;99.90;;;;;;5107046;28;20051;-62
2022/02/03 23:06:14;;;;;;;35.80;21.95;;;6.70;99.90;;;;;;5088162;28;20062;-63
2022/02/03 23:19:58;;;;;;;43.85;23.33;;;6.70;99.90;;;;;;5079489;28;20082;-65
2022/02/03 23:22:24;;;;;;;35.55;23.25;;;6.80;99.90;;;;;;5111052;28;20032;-65
2022/02/03 23:24:51;;;;;;;36.38;21.35;;;6.70;99.90;;;;;;5110550;28;20054;-65
2022/02/03 23:27:40;;;;;;;37.25;22.55;;;6.80;99.90;;;;;;5092741;28;20085;-64
2022/02/03 23:30:05;;;;;;;36.90;22.83;;;6.80;99.90;;;;;;5110396;28;20035;-64
2022/02/03 23:32:31;;;;;;;37.67;23.42;;;6.80;99.90;;;;;;5111574;28;20020;-64
2022/02/03 23:35:15;;;;;;;40.88;24.20;;;6.70;99.90;;;;;;5093436;28;20024;-64
2022/02/03 23:37:44;;;;;;;39.67;22.25;;;6.80;99.90;;;;;;5111668;28;20115;-64
2022/02/03 23:45:46;;;;;;;39.10;22.80;;;6.80;99.90;;;;;;5111162;28;20456;-65
